Time;durP1;ratioP1;P1;durP2;ratioP2;P2;SDS_P1;SDS_P2;PMS_P1;PMS_P2;Temp;Humidity;BMP_temperature;BMP_pressure;BME280_temperature;BME280_humidity;BME280_pressure;Samples;Min_cycle;Max_cycle;Signal;HPM_P1;HPM_P2
2022/12/09 00:01:15;;;;;;;38.55;22.22;;;;;;;1.80;92.09;97206.79;1706574;84;21036;-78
2022/12/09 00:03:43;;;;;;;40.58;21.27;;;;;;;1.79;92.01;97199.83;1709454;84;21403;-78
2022/12/09 00:06:17;;;;;;;42.38;21.93;;;;;;;1.75;91.97;97201.61;1706060;84;20962;-81
2022/12/09 00:08:44;;;;;;;43.55;24.63;;;;;;;1.75;92.02;97204.65;1703734;84;21371;-81
2022/12/09 00:11:12;;;;;;;47.05;24.82;;;;;;;1.76;92.01;97215.09;1711109;84;21402;-78
2022/12/09 00:13:38;;;;;;;39.38;22.35;;;;;;;1.76;92.51;97215.09;1701877;84;21021;-79
2022/12/09 00:16:12;;;;;;;44.30;24.32;;;;;;;1.78;92.67;97219.86;1696116;83;20997;-78
2022/12/09 00:18:40;;;;;;;49.25;24.10;;;;;;;1.82;92.80;97227.22;1680954;84;21000;-78
2022/12/09 00:21:26;;;;;;;48.13;24.92;;;;;;;1.84;92.43;97217.65;1686553;85;21016;-79
2022/12/09 00:23:57;;;;;;;48.48;26.40;;;;;;;1.86;92.05;97214.58;1684269;84;21458;-77
2022/12/09 00:26:26;;;;;;;45.10;25.48;;;;;;;1.88;92.27;97216.75;1685461;84;21049;-77
2022/12/09 00:28:54;;;;;;;48.78;27.25;;;;;;;1.92;92.66;97228.92;1691532;84;21011;-76
2022/12/09 00:31:24;;;;;;;51.18;26.27;;;;;;;1.94;92.33;97216.70;1684660;85;21040;-76
2022/12/09 00:33:54;;;;;;;49.10;26.48;;;;;;;2.00;92.62;97229.29;1683312;84;20981;-76
2022/12/09 00:36:22;;;;;;;47.73;26.73;;;;;;;2.02;92.38;97228.83;1687386;84;21447;-76
2022/12/09 00:38:49;;;;;;;49.23;26.02;;;;;;;2.03;92.49;97220.98;1691214;84;21031;-75
2022/12/09 00:41:17;;;;;;;43.42;25.12;;;;;;;2.05;92.73;97233.61;1685072;85;20989;-76
2022/12/09 00:43:46;;;;;;;44.95;26.17;;;;;;;2.09;92.62;97222.26;1684626;84;21032;-76
2022/12/09 00:46:19;;;;;;;47.53;24.57;;;;;;;2.11;92.73;97221.80;1657447;85;20941;-76
2022/12/09 00:48:46;;;;;;;38.80;22.95;;;;;;;2.14;93.05;97216.09;1684850;85;21008;-76
2022/12/09 00:51:18;;;;;;;41.60;23.57;;;;;;;2.20;93.11;97226.53;1683980;84;21060;-79
2022/12/09 00:53:46;;;;;;;44.35;23.87;;;;;;;2.21;93.34;97219.95;1691756;84;21040;-77
2022/12/09 00:56:14;;;;;;;42.55;23.57;;;;;;;2.24;92.75;97231.70;1690201;84;20985;-78
2022/12/09 00:58:41;;;;;;;41.60;23.05;;;;;;;2.27;93.05;97224.27;1689441;84;20981;-77
2022/12/09 01:01:08;;;;;;;44.35;23.77;;;;;;;2.30;93.18;97229.48;1688754;84;21069;-77
2022/12/09 01:03:36;;;;;;;41.05;21.90;;;;;;;2.26;92.63;97236.05;1685920;85;20961;-77
2022/12/09 01:06:11;;;;;;;42.13;24.07;;;;;;;2.22;92.52;97242.63;1686211;85;21390;-78
2022/12/09 01:08:39;;;;;;;43.85;23.87;;;;;;;2.18;92.52;97242.22;1683992;85;20976;-79
2022/12/09 01:11:16;;;;;;;46.10;24.35;;;;;;;2.15;92.19;97244.00;1693145;84;20992;-83
2022/12/09 01:13:46;;;;;;;47.17;24.27;;;;;;;2.10;92.47;97247.52;1694709;84;21425;-79
2022/12/09 01:16:20;;;;;;;48.58;24.90;;;;;;;2.07;92.69;97247.95;1674249;84;21190;-81
2022/12/09 01:18:48;;;;;;;58.87;28.12;;;;;;;2.04;92.40;97250.15;1676107;84;21027;-83
2022/12/09 01:21:16;;;;;;;57.75;28.50;;;;;;;2.02;92.80;97258.88;1651484;85;20998;-83
2022/12/09 01:23:42;;;;;;;61.95;30.15;;;;;;;2.02;92.89;97256.27;1674127;85;21070;-82
2022/12/09 01:26:10;;;;;;;53.23;26.33;;;;;;;2.00;93.11;97256.30;1678897;84;21070;-78
2022/12/09 01:28:38;;;;;;;51.73;25.50;;;;;;;1.95;93.01;97267.23;1678661;84;21016;-77
2022/12/09 01:31:14;;;;;;;57.73;26.65;;;;;;;1.92;93.10;97264.20;1663263;85;21070;-77
2022/12/09 01:33:42;;;;;;;52.50;25.35;;;;;;;1.92;93.07;97260.28;1682439;85;20998;-77
2022/12/09 01:36:16;;;;;;;52.08;26.20;;;;;;;1.91;93.08;97250.68;1682568;85;21006;-75
2022/12/09 01:38:44;;;;;;;58.98;26.52;;;;;;;1.90;93.12;97247.65;1668242;85;21488;-77
2022/12/09 01:41:11;;;;;;;58.92;27.77;;;;;;;1.89;93.18;97245.92;1681896;85;21005;-77
2022/12/09 01:43:39;;;;;;;52.00;25.05;;;;;;;1.88;93.09;97244.62;1682640;85;21038;-77
2022/12/09 01:46:06;;;;;;;58.33;25.10;;;;;;;1.90;93.35;97238.50;1682500;85;21118;-74
2022/12/09 01:48:41;;;;;;;53.35;25.10;;;;;;;1.94;93.23;97240.22;1682795;85;21360;-76
2022/12/09 01:51:16;;;;;;;54.98;25.02;;;;;;;1.94;92.82;97241.95;1682373;85;21090;-76
2022/12/09 01:53:47;;;;;;;54.15;25.25;;;;;;;1.93;93.33;97241.11;1682183;85;20970;-76
2022/12/09 01:56:21;;;;;;;56.73;24.85;;;;;;;1.89;93.28;97245.04;1676919;85;21039;-76
2022/12/09 01:58:48;;;;;;;;;;;;;;;1.91;93.25;97236.77;1685309;85;21051;-76
2022/12/09 02:01:17;;;;;;;54.70;24.90;;;;;;;1.95;93.44;97238.02;1682497;85;20089;-77
2022/12/09 02:03:43;;;;;;;57.17;26.62;;;;;;;1.95;93.55;97245.02;1682592;85;20931;-77
2022/12/09 02:06:10;;;;;;;52.58;24.43;;;;;;;1.96;93.20;97250.67;1682456;85;20995;-77
2022/12/09 02:08:37;;;;;;;50.20;23.30;;;;;;;1.98;93.62;97250.20;1682359;85;20975;-77
2022/12/09 02:11:18;;;;;;;52.45;24.90;;;;;;;2.02;93.61;97246.69;1682383;85;20955;-76
2022/12/09 02:13:57;;;;;;;44.00;23.10;;;;;;;2.06;93.80;97237.95;1682640;85;21033;-76
2022/12/09 02:16:28;;;;;;;48.10;22.60;;;;;;;2.07;93.78;97233.58;1678154;85;21069;-76
2022/12/09 02:19:19;;;;;;;41.23;20.97;;;;;;;2.15;93.93;97244.00;1682786;85;21353;-77
2022/12/09 02:21:57;;;;;;;43.20;20.50;;;;;;;2.21;93.85;97242.63;1682575;85;21010;-77
2022/12/09 02:24:49;;;;;;;43.30;19.70;;;;;;;2.21;93.68;97246.55;1682717;85;20982;-77
2022/12/09 02:27:21;;;;;;;43.52;19.75;;;;;;;2.27;93.94;97251.72;1680005;84;21033;-77
2022/12/09 02:30:07;;;;;;;46.45;21.73;;;;;;;2.30;93.61;97248.22;1681606;84;21450;-77
2022/12/09 02:32:51;;;;;;;39.53;18.77;;;;;;;2.26;93.61;97244.77;1682209;84;21074;-77
2022/12/09 02:35:48;;;;;;;40.33;19.30;;;;;;;2.29;93.86;97240.83;1679602;84;21084;-75
2022/12/09 02:38:22;;;;;;;38.58;19.57;;;;;;;2.30;94.05;97234.72;1674796;85;22187;-75
2022/12/09 02:41:03;;;;;;;42.78;20.72;;;;;;;2.26;93.17;97245.20;1674751;84;21059;-75
2022/12/09 02:43:34;;;;;;;46.58;20.92;;;;;;;2.16;94.04;97245.27;1680807;84;20949;-75
2022/12/09 02:46:04;;;;;;;38.70;19.10;;;;;;;2.17;93.90;97253.98;1682812;84;21022;-75
2022/12/09 02:48:36;;;;;;;41.40;20.08;;;;;;;2.11;93.77;97243.13;1678632;84;21006;-75
2022/12/09 02:51:08;;;;;;;41.83;18.77;;;;;;;2.08;93.65;97245.33;1673911;84;21425;-75
2022/12/09 02:53:37;;;;;;;39.48;18.95;;;;;;;2.06;93.80;97244.48;1674557;84;20974;-76
2022/12/09 02:56:07;;;;;;;38.20;19.35;;;;;;;2.02;93.71;97247.13;1674487;84;22212;-76
2022/12/09 02:58:34;;;;;;;49.77;20.85;;;;;;;1.95;93.82;97243.25;1677340;84;20992;-76
2022/12/09 03:01:02;;;;;;;48.55;19.75;;;;;;;1.88;93.36;97246.80;1675801;84;21449;-75
2022/12/09 03:03:32;;;;;;;43.45;20.77;;;;;;;1.83;93.08;97253.34;1674439;84;20982;-76
2022/12/09 03:06:06;;;;;;;44.13;20.72;;;;;;;1.80;93.44;97236.83;1674835;84;21046;-75
2022/12/09 03:09:00;;;;;;;56.55;20.95;;;;;;;1.82;93.46;97241.17;1672709;84;20987;-75
2022/12/09 03:11:28;;;;;;;45.67;18.87;;;;;;;1.82;93.57;97232.45;1674431;84;21007;-75
2022/12/09 03:14:05;;;;;;;48.40;20.90;;;;;;;1.79;93.44;97246.86;1676925;84;21010;-76
2022/12/09 03:16:52;;;;;;;48.05;21.33;;;;;;;1.79;93.58;97243.79;1683079;84;21015;-75
2022/12/09 03:19:25;;;;;;;50.78;20.55;;;;;;;1.81;93.61;97239.87;1677256;84;21011;-75
2022/12/09 03:21:56;;;;;;;42.45;19.95;;;;;;;1.80;94.01;97244.25;1675531;84;21412;-76
2022/12/09 03:24:34;;;;;;;47.05;20.95;;;;;;;1.85;93.99;97240.28;1674895;84;21011;-76
2022/12/09 03:27:06;;;;;;;47.35;20.52;;;;;;;1.85;94.05;97232.44;1674741;84;21007;-75
2022/12/09 03:29:36;;;;;;;50.23;20.65;;;;;;;1.88;94.07;97235.05;1680913;84;21066;-75
2022/12/09 03:32:03;;;;;;;41.55;20.23;;;;;;;1.88;93.87;97233.73;1680544;84;21038;-75
2022/12/09 03:34:35;;;;;;;39.20;19.62;;;;;;;1.87;93.75;97225.45;1680595;84;21079;-76
2022/12/09 03:37:03;;;;;;;45.30;20.60;;;;;;;1.87;94.07;97227.21;1674665;84;20994;-75
2022/12/09 03:39:33;;;;;;;51.30;21.15;;;;;;;1.87;94.03;97225.91;1674545;84;21413;-76
2022/12/09 03:42:05;;;;;;;43.78;21.77;;;;;;;1.87;93.53;97224.59;1674639;84;20987;-76
2022/12/09 03:44:54;;;;;;;45.23;20.68;;;;;;;1.86;93.58;97226.79;1674472;84;21010;-76
2022/12/09 03:47:21;;;;;;;47.65;21.42;;;;;;;1.86;93.80;97221.56;1673593;84;21150;-77
2022/12/09 03:49:48;;;;;;;43.58;20.43;;;;;;;1.94;94.23;97231.50;1678280;84;21053;-77
2022/12/09 03:52:31;;;;;;;44.15;20.40;;;;;;;1.98;94.17;97221.45;1674301;84;21006;-77
2022/12/09 03:55:08;;;;;;;41.90;19.98;;;;;;;2.02;94.13;97219.67;1674485;84;21022;-77
2022/12/09 03:57:39;;;;;;;41.50;19.32;;;;;;;2.02;93.55;97224.48;1673911;84;22153;-76
2022/12/09 04:00:07;;;;;;;40.15;18.82;;;;;;;2.02;93.99;97223.17;1674495;84;20998;-76
2022/12/09 04:02:37;;;;;;;44.08;20.23;;;;;;;2.10;94.41;97233.13;1674154;84;21002;-76
2022/12/09 04:05:04;;;;;;;40.33;20.23;;;;;;;2.02;93.48;97235.36;1677775;85;21001;-76
2022/12/09 04:07:31;;;;;;;43.73;19.67;;;;;;;2.03;94.26;97229.28;1682126;84;21013;-76
2022/12/09 04:09:58;;;;;;;42.85;20.40;;;;;;;2.03;94.04;97233.20;1675922;84;21425;-76
2022/12/09 04:12:24;;;;;;;40.80;18.85;;;;;;;2.08;94.60;97220.50;1674627;84;20943;-77
2022/12/09 04:14:51;;;;;;;45.48;20.32;;;;;;;2.17;94.40;97220.89;1674472;84;21432;-77
2022/12/09 04:17:17;;;;;;;52.38;20.88;;;;;;;2.17;93.90;97227.84;1674637;84;21393;-77
2022/12/09 04:19:44;;;;;;;53.00;19.95;;;;;;;2.13;93.96;97249.23;1674533;84;21062;-77
2022/12/09 04:22:10;;;;;;;51.98;20.68;;;;;;;2.10;94.24;97247.52;1647349;85;21014;-76
2022/12/09 04:24:37;;;;;;;41.68;20.82;;;;;;;2.06;94.35;97252.33;1681985;84;20988;-76
2022/12/09 04:27:04;;;;;;;47.55;20.68;;;;;;;2.07;94.66;97250.14;1676367;84;21058;-76
2022/12/09 04:29:30;;;;;;;53.98;21.50;;;;;;;2.05;94.33;97253.22;1653583;85;21564;-76
2022/12/09 04:31:57;;;;;;;57.13;22.13;;;;;;;2.04;94.23;97248.84;1657658;86;20975;-77
2022/12/09 04:34:23;;;;;;;53.15;23.30;;;;;;;2.02;94.13;97243.20;1624219;88;21048;-78
2022/12/09 04:36:51;;;;;;;79.45;23.55;;;;;;;1.96;94.34;97242.37;1668452;86;20975;-77
2022/12/09 04:39:20;;;;;;;66.25;24.40;;;;;;;1.84;93.77;97255.08;1649377;86;21011;-77
2022/12/09 04:41:49;;;;;;;57.93;24.60;;;;;;;1.80;94.41;97254.70;1668539;86;21011;-76
2022/12/09 04:44:16;;;;;;;60.88;23.65;;;;;;;1.77;94.20;97256.44;1668482;85;21034;-77
2022/12/09 04:46:42;;;;;;;64.27;25.80;;;;;;;1.76;94.91;97249.05;1624507;88;21024;-77
2022/12/09 04:49:09;;;;;;;66.70;26.07;;;;;;;1.77;94.77;97257.31;1668253;86;21424;-77
2022/12/09 04:51:35;;;;;;;63.78;25.17;;;;;;;1.78;94.37;97259.05;1624487;88;20971;-77
2022/12/09 04:54:02;;;;;;;58.48;23.52;;;;;;;1.81;94.51;97249.02;1663024;86;21040;-77
2022/12/09 04:56:28;;;;;;;63.45;25.70;;;;;;;1.80;94.69;97259.92;1624239;88;21032;-77
2022/12/09 04:58:55;;;;;;;70.35;26.20;;;;;;;1.75;94.72;97273.88;1668651;86;22135;-77
2022/12/09 05:01:23;;;;;;;66.80;25.30;;;;;;;1.76;94.75;97270.38;1624418;88;20988;-77
2022/12/09 05:03:52;;;;;;;59.23;23.12;;;;;;;1.70;94.44;97265.63;1668474;86;21007;-77
2022/12/09 05:06:21;;;;;;;66.50;22.60;;;;;;;1.70;95.27;97260.83;1624383;88;21022;-77
2022/12/09 05:08:48;;;;;;;64.87;22.95;;;;;;;1.63;94.49;97265.67;1623998;88;21039;-77
2022/12/09 05:11:17;;;;;;;65.45;24.23;;;;;;;1.62;94.80;97273.08;1659292;86;21023;-77
2022/12/09 05:13:44;;;;;;;54.75;22.32;;;;;;;1.66;94.58;97271.73;1624342;88;21004;-77
2022/12/09 05:16:14;;;;;;;55.45;22.42;;;;;;;1.72;94.60;97276.07;1668397;86;21010;-77
2022/12/09 05:18:41;;;;;;;55.03;22.73;;;;;;;1.73;94.70;97275.65;1624419;88;21058;-77
2022/12/09 05:21:11;;;;;;;54.10;22.15;;;;;;;1.79;94.93;97284.75;1668592;86;21043;-78
2022/12/09 05:23:38;;;;;;;55.03;22.98;;;;;;;1.86;95.31;97285.58;1624479;88;21007;-75
2022/12/09 05:26:08;;;;;;;60.12;23.67;;;;;;;1.93;95.30;97280.30;1606293;88;21074;-75
2022/12/09 05:28:36;;;;;;;61.53;23.98;;;;;;;1.90;94.75;97290.77;1648650;86;20995;-75
2022/12/09 05:31:07;;;;;;;57.55;24.37;;;;;;;1.86;94.88;97282.97;1636279;85;21461;-75
2022/12/09 05:33:34;;;;;;;51.18;22.32;;;;;;;1.91;95.12;97287.27;1624388;87;21030;-75
2022/12/09 05:36:00;;;;;;;54.75;23.47;;;;;;;1.86;94.80;97290.34;1624454;87;21124;-76
2022/12/09 05:38:27;;;;;;;50.40;22.48;;;;;;;1.91;95.15;97296.88;1652215;85;21455;-77
2022/12/09 05:40:53;;;;;;;46.00;20.55;;;;;;;1.96;95.23;97280.27;1652329;85;21002;-76
2022/12/09 05:43:20;;;;;;;44.05;19.65;;;;;;;1.98;95.42;97291.59;1651739;85;21042;-76
2022/12/09 05:45:47;;;;;;;36.83;17.95;;;;;;;2.04;95.90;97293.27;1652305;85;21010;-77
2022/12/09 05:48:13;;;;;;;38.73;18.77;;;;;;;2.08;95.44;97301.98;1652447;85;21030;-77
2022/12/09 05:50:39;;;;;;;44.33;19.75;;;;;;;2.07;95.23;97302.84;1652135;85;21436;-77
2022/12/09 05:53:06;;;;;;;42.27;19.00;;;;;;;2.04;95.03;97301.12;1652323;85;21001;-77
2022/12/09 05:55:32;;;;;;;42.80;18.90;;;;;;;2.02;94.66;97300.70;1652416;85;20971;-77
2022/12/09 05:57:59;;;;;;;42.25;19.02;;;;;;;2.01;95.10;97304.20;1651884;85;21064;-77
2022/12/09 06:00:26;;;;;;;44.35;19.52;;;;;;;2.01;95.01;97303.77;1651812;85;21039;-77
2022/12/09 06:02:52;;;;;;;44.67;20.45;;;;;;;1.98;94.92;97305.97;1634257;87;21042;-77
2022/12/09 06:05:19;;;;;;;53.98;21.07;;;;;;;1.97;95.09;97310.77;1634820;86;21034;-77
2022/12/09 06:07:45;;;;;;;52.45;21.10;;;;;;;1.95;94.53;97297.28;1622486;87;21022;-77
2022/12/09 06:10:12;;;;;;;59.35;22.55;;;;;;;1.93;94.85;97309.47;1623670;88;21069;-76
2022/12/09 06:12:39;;;;;;;62.05;21.90;;;;;;;1.91;94.59;97302.95;1622377;87;21424;-76
2022/12/09 06:15:07;;;;;;;45.23;20.80;;;;;;;1.88;95.05;97295.57;1625411;87;21041;-76
2022/12/09 06:17:34;;;;;;;53.08;22.90;;;;;;;1.87;94.65;97303.84;1628786;86;20979;-76
2022/12/09 06:20:00;;;;;;;55.70;21.65;;;;;;;1.84;94.19;97299.50;1635424;86;21039;-76
2022/12/09 06:22:27;;;;;;;48.68;20.57;;;;;;;1.83;94.64;97296.46;1622545;87;21014;-76
2022/12/09 06:24:55;;;;;;;49.70;21.62;;;;;;;1.84;95.04;97313.02;1622335;87;21007;-76
2022/12/09 06:27:22;;;;;;;52.88;21.60;;;;;;;1.86;95.08;97310.41;1622355;88;21094;-78
2022/12/09 06:29:48;;;;;;;50.43;21.90;;;;;;;1.87;95.21;97312.98;1683386;84;21012;-76
2022/12/09 06:32:15;;;;;;;48.68;21.62;;;;;;;1.88;95.16;97312.13;1686126;84;21005;-76
2022/12/09 06:34:41;;;;;;;58.70;23.80;;;;;;;1.88;94.76;97304.29;1679945;84;20989;-76
2022/12/09 06:37:07;;;;;;;50.52;21.57;;;;;;;1.93;95.21;97311.66;1679461;84;21383;-76
2022/12/09 06:39:35;;;;;;;51.35;21.87;;;;;;;1.94;95.18;97309.47;1698325;84;21021;-76
2022/12/09 06:42:03;;;;;;;52.17;22.40;;;;;;;1.95;95.01;97319.04;1681918;84;21012;-76
2022/12/09 06:44:29;;;;;;;59.73;24.55;;;;;;;1.95;94.58;97316.89;1681150;84;21019;-76
2022/12/09 06:46:56;;;;;;;57.08;26.07;;;;;;;1.97;94.49;97317.73;1682765;84;20992;-76
2022/12/09 06:49:23;;;;;;;51.83;23.40;;;;;;;1.96;94.59;97324.69;1685111;84;21052;-76
2022/12/09 06:51:49;;;;;;;51.37;24.05;;;;;;;1.97;94.50;97312.50;1682555;84;20993;-76
2022/12/09 06:54:16;;;;;;;57.30;24.12;;;;;;;1.98;94.68;97324.27;1680071;84;21526;-76
2022/12/09 06:56:42;;;;;;;55.05;21.97;;;;;;;2.06;95.73;97325.94;1682834;84;21045;-76
2022/12/09 06:59:10;;;;;;;46.83;21.48;;;;;;;2.16;95.79;97321.08;1681532;84;21407;-76
2022/12/09 07:01:37;;;;;;;45.95;20.82;;;;;;;2.21;95.69;97303.61;1681808;84;21052;-77
2022/12/09 07:04:05;;;;;;;54.25;20.23;;;;;;;2.25;95.38;97313.63;1683116;84;20949;-76
2022/12/09 07:06:38;;;;;;;46.95;21.33;;;;;;;2.27;95.46;97304.45;1680945;84;21452;-77
2022/12/09 07:09:10;;;;;;;47.60;20.27;;;;;;;2.33;95.89;97301.34;1705696;84;20976;-76
2022/12/09 07:11:37;;;;;;;46.23;21.50;;;;;;;2.35;95.24;97311.37;1667734;84;21013;-77
2022/12/09 07:14:05;;;;;;;51.55;20.97;;;;;;;2.39;95.52;97299.14;1685324;84;21024;-78
2022/12/09 07:16:33;;;;;;;52.93;20.32;;;;;;;2.37;95.06;97295.22;1635290;85;21709;-77
2022/12/09 07:19:01;;;;;;;51.25;22.85;;;;;;;2.43;95.64;97299.97;1685586;84;21028;-77
2022/12/09 07:21:29;;;;;;;51.85;21.77;;;;;;;2.46;95.73;97307.80;1684930;84;21033;-75
2022/12/09 07:23:59;;;;;;;61.40;24.15;;;;;;;2.50;95.93;97309.52;1685043;84;21047;-75
2022/12/09 07:26:26;;;;;;;61.20;23.52;;;;;;;2.48;94.97;97306.03;1685011;84;21024;-75
2022/12/09 07:28:52;;;;;;;60.25;25.70;;;;;;;2.47;95.75;97314.34;1690280;83;21018;-76
2022/12/09 07:31:26;;;;;;;62.27;22.82;;;;;;;2.50;95.60;97310.37;1694823;85;21470;-76
2022/12/09 07:33:55;;;;;;;62.13;23.75;;;;;;;2.50;95.52;97289.90;1694957;83;21416;-76
2022/12/09 07:36:26;;;;;;;69.40;24.50;;;;;;;2.49;95.02;97300.79;1694263;83;21455;-75
2022/12/09 07:38:57;;;;;;;60.98;27.80;;;;;;;2.49;94.91;97295.56;1694765;83;21010;-75
2022/12/09 07:41:24;;;;;;;70.90;23.30;;;;;;;2.49;95.06;97299.48;1694802;83;20966;-76
2022/12/09 07:43:50;;;;;;;63.35;25.08;;;;;;;2.46;94.91;97297.34;1694609;83;21117;-76
2022/12/09 07:46:20;;;;;;;70.03;24.55;;;;;;;2.42;95.17;97301.73;1694882;83;20990;-76
2022/12/09 07:48:47;;;;;;;69.32;23.70;;;;;;;2.44;95.58;97291.23;1694798;83;20981;-76
2022/12/09 07:51:14;;;;;;;64.70;23.52;;;;;;;2.41;94.90;97284.28;1694474;83;21011;-76
2022/12/09 07:53:41;;;;;;;57.45;23.07;;;;;;;2.41;95.35;97283.44;1694805;83;21009;-77
2022/12/09 07:56:12;;;;;;;60.92;22.48;;;;;;;2.41;95.75;97284.28;1694795;83;21041;-77
2022/12/09 07:58:38;;;;;;;64.67;23.15;;;;;;;2.38;95.14;97281.72;1694775;83;21109;-77
2022/12/09 08:01:15;;;;;;;57.65;22.87;;;;;;;2.41;95.91;97282.13;1700210;83;20997;-76
2022/12/09 08:03:43;;;;;;;59.75;23.07;;;;;;;2.38;95.59;97283.02;1685976;83;21051;-75
2022/12/09 08:06:17;;;;;;;71.72;27.87;;;;;;;2.37;95.45;97289.14;1684541;83;21434;-75
2022/12/09 08:08:44;;;;;;;55.75;24.55;;;;;;;2.42;96.04;97285.17;1680869;83;21402;-75
2022/12/09 08:11:24;;;;;;;67.60;24.90;;;;;;;2.48;95.80;97294.26;1687411;83;21039;-75
2022/12/09 08:13:52;;;;;;;60.58;25.43;;;;;;;2.52;95.83;97280.28;1706583;83;21398;-76
2022/12/09 08:16:21;;;;;;;60.83;23.83;;;;;;;2.57;96.19;97281.56;1694806;83;21422;-77
2022/12/09 08:18:49;;;;;;;59.53;24.18;;;;;;;2.60;95.90;97288.94;1691851;83;21048;-78
2022/12/09 08:21:25;;;;;;;60.60;25.05;;;;;;;2.56;95.51;97279.37;1690785;83;21024;-77
2022/12/09 08:23:54;;;;;;;65.15;24.27;;;;;;;2.58;96.05;97284.59;1691062;83;20988;-77
2022/12/09 08:26:24;;;;;;;67.85;24.82;;;;;;;2.58;95.44;97288.52;1690522;83;21392;-77
2022/12/09 08:28:51;;;;;;;68.35;25.60;;;;;;;2.53;95.46;97295.55;1692034;83;21059;-77
2022/12/09 08:31:21;;;;;;;77.35;30.50;;;;;;;2.55;95.86;97288.53;1694611;83;21009;-76
2022/12/09 08:33:49;;;;;;;64.65;28.12;;;;;;;2.59;96.46;97279.78;1694548;83;21041;-76
2022/12/09 08:36:21;;;;;;;75.80;27.48;;;;;;;2.66;95.85;97281.48;1694490;85;21057;-77
2022/12/09 08:38:47;;;;;;;77.80;29.10;;;;;;;2.74;95.74;97282.72;1688132;83;21045;-76
2022/12/09 08:41:33;;;;;;;68.07;26.17;;;;;;;2.80;95.61;97283.08;1716619;83;21426;-78
2022/12/09 08:43:53;;;;;;;71.20;27.10;;;;;;;2.86;95.74;97284.34;1719137;83;21430;-77
2022/12/09 08:46:20;;;;;;;68.15;27.87;;;;;;;2.98;96.21;97277.66;1710194;83;21044;-79
2022/12/09 08:48:46;;;;;;;61.40;24.82;;;;;;;3.04;95.85;97267.11;1692388;83;21035;-78
2022/12/09 08:51:13;;;;;;;64.90;25.55;;;;;;;3.06;95.60;97268.87;1675231;83;21438;-80
2022/12/09 08:53:39;;;;;;;63.80;25.77;;;;;;;3.10;95.71;97263.56;1711094;83;20973;-80
2022/12/09 08:56:11;;;;;;;64.10;24.95;;;;;;;3.15;95.58;97263.06;1720639;83;21553;-79
2022/12/09 08:58:38;;;;;;;65.12;23.87;;;;;;;3.20;95.79;97267.39;1699679;83;21430;-77
2022/12/09 09:01:05;;;;;;;56.45;21.60;;;;;;;3.25;95.64;97257.72;1710116;83;21394;-78
2022/12/09 09:03:32;;;;;;;51.10;21.85;;;;;;;3.21;94.86;97255.59;1721197;83;21016;-79
2022/12/09 09:06:04;;;;;;;55.15;21.95;;;;;;;3.17;95.51;97253.43;1709548;83;21016;-77
2022/12/09 09:08:31;;;;;;;60.50;23.00;;;;;;;3.26;95.53;97248.97;1695559;83;21031;-79
2022/12/09 09:11:09;;;;;;;57.25;22.35;;;;;;;3.26;95.30;97254.21;1714032;83;20973;-75
2022/12/09 09:13:39;;;;;;;52.05;22.32;;;;;;;3.30;95.37;97242.81;1715158;83;20969;-77
2022/12/09 09:16:17;;;;;;;49.88;20.90;;;;;;;3.28;94.83;97249.37;1677720;83;21016;-75
2022/12/09 09:18:45;;;;;;;50.60;20.97;;;;;;;3.24;94.89;97237.20;1713459;83;21438;-74
2022/12/09 09:21:19;;;;;;;55.80;23.07;;;;;;;3.24;95.32;97224.11;1696202;83;21028;-76
2022/12/09 09:23:46;;;;;;;52.93;21.62;;;;;;;3.16;94.48;97218.13;1699700;83;21024;-80
2022/12/09 09:26:16;;;;;;;52.40;21.40;;;;;;;3.06;94.80;97212.58;1691012;83;20985;-74
2022/12/09 09:28:44;;;;;;;55.15;23.05;;;;;;;3.07;95.28;97212.53;1715762;83;21047;-75
2022/12/09 09:31:15;;;;;;;53.75;23.32;;;;;;;3.07;95.09;97207.77;1717122;83;21055;-75
2022/12/09 09:33:41;;;;;;;57.85;24.55;;;;;;;3.04;95.02;97208.20;1712242;83;21060;-74
2022/12/09 09:36:13;;;;;;;61.75;28.00;;;;;;;3.04;95.02;97212.59;1712087;83;21013;-74
2022/12/09 09:38:42;;;;;;;48.30;21.23;;;;;;;3.02;94.96;97217.84;1704303;83;20985;-75
2022/12/09 09:41:39;;;;;;;58.15;23.42;;;;;;;2.93;94.35;97207.48;1710758;83;21051;-74
2022/12/09 09:44:19;;;;;;;57.62;24.00;;;;;;;2.86;94.73;97198.83;1717218;83;22249;-73
2022/12/09 09:46:49;;;;;;;55.58;23.98;;;;;;;2.87;94.53;97190.55;1720164;83;21524;-74
2022/12/09 09:49:21;;;;;;;51.55;24.77;;;;;;;2.86;94.70;97187.05;1721351;83;21016;-74
2022/12/09 09:51:48;;;;;;;59.75;24.07;;;;;;;2.85;94.72;97179.20;1714210;83;20977;-74
2022/12/09 09:54:15;;;;;;;53.63;25.62;;;;;;;2.81;94.84;97167.92;1704162;83;21190;-74
2022/12/09 09:56:56;;;;;;;55.60;22.85;;;;;;;2.80;94.57;97153.54;1698348;83;21491;-74
2022/12/09 09:59:40;;;;;;;51.02;22.15;;;;;;;2.80;94.54;97157.03;1710283;83;21013;-74
2022/12/09 10:02:19;;;;;;;52.58;23.70;;;;;;;2.76;94.73;97154.91;1708207;83;21051;-74
2022/12/09 10:04:54;;;;;;;52.43;21.87;;;;;;;2.81;95.46;97140.44;1718414;83;21048;-74
2022/12/09 10:07:29;;;;;;;60.88;27.27;;;;;;;2.94;95.18;97138.53;1706205;83;21023;-75
2022/12/09 10:10:16;;;;;;;56.33;24.75;;;;;;;2.99;95.15;97136.72;1710863;83;21012;-74
2022/12/09 10:13:03;;;;;;;54.60;23.77;;;;;;;3.06;94.65;97139.28;1719340;83;21028;-74
2022/12/09 10:15:44;;;;;;;49.73;23.22;;;;;;;3.06;94.63;97137.97;1717115;83;21004;-74
2022/12/09 10:18:51;;;;;;;57.70;24.87;;;;;;;3.07;94.93;97141.00;1698461;83;21086;-73
2022/12/09 10:21:20;;;;;;;55.48;24.30;;;;;;;3.11;95.01;97133.08;1668286;85;21005;-74
2022/12/09 10:23:48;;;;;;;53.33;23.20;;;;;;;3.12;94.81;97140.50;1674315;85;21025;-73
2022/12/09 10:26:28;;;;;;;63.05;26.00;;;;;;;3.14;95.14;97147.44;1657245;85;21013;-74
2022/12/09 10:29:06;;;;;;;54.85;24.63;;;;;;;3.18;94.97;97132.55;1646158;85;21487;-73
2022/12/09 10:31:32;;;;;;;58.68;27.40;;;;;;;3.22;95.08;97137.30;1654090;86;21491;-74
2022/12/09 10:34:00;;;;;;;57.80;24.65;;;;;;;3.30;95.30;97133.70;1657299;86;20995;-74
2022/12/09 10:36:29;;;;;;;68.00;27.30;;;;;;;3.33;94.96;97127.55;1641320;86;21018;-74
2022/12/09 10:38:56;;;;;;;62.00;27.05;;;;;;;3.38;95.04;97105.20;1651052;86;21076;-75
2022/12/09 10:44:29;;;;;;;62.58;27.10;;;;;;;3.47;95.37;97101.57;1650340;86;21018;-74
2022/12/09 10:47:00;;;;;;;67.30;28.45;;;;;;;3.53;95.09;97102.81;1634915;86;21050;-74
2022/12/09 10:49:28;;;;;;;67.25;26.97;;;;;;;3.54;94.92;97102.76;1654924;86;21038;-74
2022/12/09 10:51:55;;;;;;;65.42;28.83;;;;;;;3.57;95.02;97091.36;1639752;86;21456;-74
2022/12/09 10:54:39;;;;;;;60.98;29.07;;;;;;;3.61;95.22;97097.44;1644126;86;21063;-74
2022/12/09 10:57:14;;;;;;;69.20;28.70;;;;;;;3.65;95.31;97093.42;1659770;86;21113;-74
2022/12/09 11:00:01;;;;;;;68.47;30.37;;;;;;;3.70;95.38;97092.91;1652229;86;21053;-74
2022/12/09 11:02:30;;;;;;;59.53;28.40;;;;;;;3.68;94.74;97080.72;1631381;86;21098;-74
2022/12/09 11:05:26;;;;;;;71.70;30.55;;;;;;;3.68;95.06;97073.73;1628653;87;21469;-74
2022/12/09 11:07:56;;;;;;;67.60;29.25;;;;;;;3.74;95.26;97074.05;1653117;86;21009;-74
2022/12/09 11:10:28;;;;;;;67.80;31.12;;;;;;;3.79;95.30;97069.59;1646894;86;21437;-74
2022/12/09 11:13:05;;;;;;;69.62;30.97;;;;;;;3.82;95.17;97066.08;1637653;87;21498;-74
2022/12/09 11:15:44;;;;;;;65.72;29.45;;;;;;;3.87;95.38;97062.06;1637285;87;21050;-74
2022/12/09 11:18:28;;;;;;;63.28;29.57;;;;;;;3.93;95.29;97060.63;1643049;86;21032;-73
2022/12/09 11:21:06;;;;;;;65.83;30.48;;;;;;;3.98;95.20;97055.32;1606414;88;21482;-73
2022/12/09 11:23:34;;;;;;;64.53;28.32;;;;;;;4.02;95.24;97052.59;1636847;86;21412;-74
2022/12/09 11:26:05;;;;;;;61.48;27.42;;;;;;;4.12;95.39;97045.88;1651940;86;21074;-74
2022/12/09 11:28:39;;;;;;;51.63;25.92;;;;;;;4.26;95.31;97037.73;1651504;86;21066;-74
2022/12/09 11:31:17;;;;;;;45.43;23.77;;;;;;;4.41;95.30;97036.57;1656017;86;21033;-74
2022/12/09 11:33:54;;;;;;;44.80;23.00;;;;;;;4.56;95.43;97038.00;1644641;86;20994;-74
2022/12/09 11:36:30;;;;;;;39.30;21.17;;;;;;;4.69;95.46;97035.53;1655216;86;22238;-74
2022/12/09 11:39:19;;;;;;;40.48;21.62;;;;;;;4.82;94.81;97022.16;1651090;86;21073;-75
2022/12/09 11:44:40;;;;;;;42.03;21.25;;;;;;;5.12;95.26;97013.16;1632813;86;21061;-75
2022/12/09 11:47:21;;;;;;;42.40;21.25;;;;;;;5.25;94.65;97001.47;1609290;88;21599;-75
2022/12/09 11:49:55;;;;;;;39.18;20.32;;;;;;;5.33;94.61;96999.97;1635915;86;21026;-73